Main page
METAR-TAF:

METAR-TAF

Airports :

Jasper County Airport (Bell Field)

Jasper, Texas, United States

latitude: 30-53-08N, longitude: 094-02-05W, elevation: 213 ft

Current weather observation

The report was made 21 minutes ago, at 17:35 UTC
Wind 7 mph from the Northeast
Temperature 88°F
Humidity 40%
Pressure 29.95 in. Hg
Visibility: 10 miles
Clear sky

METAR: KJAS 141735Z AUTO 04006KT 10SM CLR 31/16 A2995 RMK AO2

Time: 12:56 (17:56 UTC)


TAF: missing

Weather observations and forecasts of more than 4000 airports (METAR and TAF reports).

The available stations are represented by yellow and red dots on the map.

Hover mouse over dot to see the name of the station.

Then click to see weather observations and forecasts.

To change the map : click on the green buttons with a black cross to zoom in, on the green button with a dash to zoom out, or on the green arrows for adjacent maps.


METAR-TAF: